<?xml version="1.0" encoding="UTF-8" standalone="no" ?>
<gpx xmlns="http://www.topografix.com/GPX/1/1" xmlns:xsi="http://www.w3.org/2001/XMLSchema-instance" xsi:schemaLocation="http://www.topografix.com/GPX/1/1 http://www.topografix.com/GPX/1/1/gpx.xsd" version="1.1" creator="VisuGPX - https://www.visugpx.com">
  <metadata>
    <name>Casteljau - De la plage au serre par la grotte</name>
    <desc><![CDATA[Boucle atypique du chassezac à la ramade par la grotte du renard à aborder prudemment tout au long du sentier.]]></desc>
  </metadata>
  <trk>
    <name><![CDATA[randogps7-529]]></name>
    <trkseg>
      <trkpt lat="44.39613" lon="4.19596">
        <ele>136</ele>
        <time>2021-10-01T07:19:50Z</time>
      </trkpt>
      <trkpt lat="44.39602" lon="4.19596">
        <ele>133</ele>
        <time>2021-10-01T07:20:05Z</time>
      </trkpt>
      <trkpt lat="44.39596" lon="4.19578">
        <ele>131</ele>
        <time>2021-10-01T07:20:24Z</time>
      </trkpt>
      <trkpt lat="44.39598" lon="4.19567">
        <ele>131</ele>
        <time>2021-10-01T07:20:34Z</time>
      </trkpt>
      <trkpt lat="44.39597" lon="4.1954">
        <ele>130</ele>
        <time>2021-10-01T07:21:00Z</time>
      </trkpt>
      <trkpt lat="44.39611" lon="4.19524">
        <ele>132</ele>
        <time>2021-10-01T07:21:24Z</time>
      </trkpt>
      <trkpt lat="44.39647" lon="4.19497">
        <ele>139</ele>
        <time>2021-10-01T07:22:19Z</time>
      </trkpt>
      <trkpt lat="44.39752" lon="4.19445">
        <ele>141</ele>
        <time>2021-10-01T07:24:47Z</time>
      </trkpt>
      <trkpt lat="44.39756" lon="4.19419">
        <ele>132</ele>
        <time>2021-10-01T07:25:13Z</time>
      </trkpt>
      <trkpt lat="44.39834" lon="4.19363">
        <ele>137</ele>
        <time>2021-10-01T07:27:10Z</time>
      </trkpt>
      <trkpt lat="44.3992" lon="4.19327">
        <ele>156</ele>
        <time>2021-10-01T07:29:10Z</time>
      </trkpt>
      <trkpt lat="44.39979" lon="4.19323">
        <ele>163</ele>
        <time>2021-10-01T07:30:28Z</time>
      </trkpt>
      <trkpt lat="44.40014" lon="4.19306">
        <ele>161</ele>
        <time>2021-10-01T07:31:18Z</time>
      </trkpt>
      <trkpt lat="44.40134" lon="4.19287">
        <ele>152</ele>
        <time>2021-10-01T07:33:59Z</time>
      </trkpt>
      <trkpt lat="44.4015" lon="4.19308">
        <ele>159</ele>
        <time>2021-10-01T07:34:28Z</time>
      </trkpt>
      <trkpt lat="44.40146" lon="4.19351">
        <ele>172</ele>
        <time>2021-10-01T07:35:10Z</time>
      </trkpt>
      <trkpt lat="44.40138" lon="4.19365">
        <ele>175</ele>
        <time>2021-10-01T07:35:27Z</time>
      </trkpt>
      <trkpt lat="44.40142" lon="4.19404">
        <ele>185</ele>
        <time>2021-10-01T07:36:04Z</time>
      </trkpt>
      <trkpt lat="44.40165" lon="4.19406">
        <ele>185</ele>
        <time>2021-10-01T07:36:35Z</time>
      </trkpt>
      <trkpt lat="44.40174" lon="4.19411">
        <ele>186</ele>
        <time>2021-10-01T07:36:48Z</time>
      </trkpt>
      <trkpt lat="44.40168" lon="4.19446">
        <ele>190</ele>
        <time>2021-10-01T07:37:22Z</time>
      </trkpt>
      <trkpt lat="44.40157" lon="4.19461">
        <ele>192</ele>
        <time>2021-10-01T07:37:43Z</time>
      </trkpt>
      <trkpt lat="44.40151" lon="4.19487">
        <ele>195</ele>
        <time>2021-10-01T07:38:09Z</time>
      </trkpt>
      <trkpt lat="44.40155" lon="4.19509">
        <ele>196</ele>
        <time>2021-10-01T07:38:30Z</time>
      </trkpt>
      <trkpt lat="44.40167" lon="4.1953">
        <ele>196</ele>
        <time>2021-10-01T07:38:56Z</time>
      </trkpt>
      <trkpt lat="44.40172" lon="4.19553">
        <ele>197</ele>
        <time>2021-10-01T07:39:19Z</time>
      </trkpt>
      <trkpt lat="44.40183" lon="4.19559">
        <ele>198</ele>
        <time>2021-10-01T07:39:35Z</time>
      </trkpt>
      <trkpt lat="44.40189" lon="4.19556">
        <ele>198</ele>
        <time>2021-10-01T07:39:43Z</time>
      </trkpt>
      <trkpt lat="44.40195" lon="4.19533">
        <ele>198</ele>
        <time>2021-10-01T07:40:07Z</time>
      </trkpt>
      <trkpt lat="44.40204" lon="4.19524">
        <ele>199</ele>
        <time>2021-10-01T07:40:21Z</time>
      </trkpt>
      <trkpt lat="44.40218" lon="4.19529">
        <ele>200</ele>
        <time>2021-10-01T07:40:41Z</time>
      </trkpt>
      <trkpt lat="44.40249" lon="4.19519">
        <ele>202</ele>
        <time>2021-10-01T07:41:23Z</time>
      </trkpt>
      <trkpt lat="44.40267" lon="4.19519">
        <ele>201</ele>
        <time>2021-10-01T07:41:47Z</time>
      </trkpt>
      <trkpt lat="44.40281" lon="4.19528">
        <ele>200</ele>
        <time>2021-10-01T07:42:08Z</time>
      </trkpt>
      <trkpt lat="44.40299" lon="4.1952">
        <ele>198</ele>
        <time>2021-10-01T07:42:33Z</time>
      </trkpt>
      <trkpt lat="44.40316" lon="4.19507">
        <ele>197</ele>
        <time>2021-10-01T07:42:59Z</time>
      </trkpt>
      <trkpt lat="44.40322" lon="4.19508">
        <ele>196</ele>
        <time>2021-10-01T07:43:07Z</time>
      </trkpt>
      <trkpt lat="44.40338" lon="4.19523">
        <ele>194</ele>
        <time>2021-10-01T07:43:33Z</time>
      </trkpt>
      <trkpt lat="44.4035" lon="4.19516">
        <ele>189</ele>
        <time>2021-10-01T07:43:50Z</time>
      </trkpt>
      <trkpt lat="44.40355" lon="4.19496">
        <ele>184</ele>
        <time>2021-10-01T07:44:10Z</time>
      </trkpt>
      <trkpt lat="44.4036" lon="4.19491">
        <ele>180</ele>
        <time>2021-10-01T07:44:18Z</time>
      </trkpt>
      <trkpt lat="44.40362" lon="4.19499">
        <ele>182</ele>
        <time>2021-10-01T07:44:26Z</time>
      </trkpt>
      <trkpt lat="44.40363" lon="4.19523">
        <ele>185</ele>
        <time>2021-10-01T07:44:49Z</time>
      </trkpt>
      <trkpt lat="44.40359" lon="4.19538">
        <ele>188</ele>
        <time>2021-10-01T07:45:05Z</time>
      </trkpt>
      <trkpt lat="44.40368" lon="4.19557">
        <ele>188</ele>
        <time>2021-10-01T07:45:26Z</time>
      </trkpt>
      <trkpt lat="44.40375" lon="4.19578">
        <ele>191</ele>
        <time>2021-10-01T07:45:48Z</time>
      </trkpt>
      <trkpt lat="44.40377" lon="4.19596">
        <ele>192</ele>
        <time>2021-10-01T07:46:06Z</time>
      </trkpt>
      <trkpt lat="44.40386" lon="4.19611">
        <ele>191</ele>
        <time>2021-10-01T07:46:24Z</time>
      </trkpt>
      <trkpt lat="44.40379" lon="4.19638">
        <ele>192</ele>
        <time>2021-10-01T07:46:52Z</time>
      </trkpt>
      <trkpt lat="44.40363" lon="4.19645">
        <ele>193</ele>
        <time>2021-10-01T07:47:14Z</time>
      </trkpt>
      <trkpt lat="44.4035" lon="4.19644">
        <ele>193</ele>
        <time>2021-10-01T07:47:32Z</time>
      </trkpt>
      <trkpt lat="44.4034" lon="4.19658">
        <ele>192</ele>
        <time>2021-10-01T07:47:50Z</time>
      </trkpt>
      <trkpt lat="44.40297" lon="4.19691">
        <ele>190</ele>
        <time>2021-10-01T07:48:56Z</time>
      </trkpt>
      <trkpt lat="44.40243" lon="4.19681">
        <ele>188</ele>
        <time>2021-10-01T07:50:09Z</time>
      </trkpt>
      <trkpt lat="44.40213" lon="4.19711">
        <ele>185</ele>
        <time>2021-10-01T07:50:58Z</time>
      </trkpt>
      <trkpt lat="44.40191" lon="4.1973">
        <ele>182</ele>
        <time>2021-10-01T07:51:32Z</time>
      </trkpt>
      <trkpt lat="44.4018" lon="4.19748">
        <ele>180</ele>
        <time>2021-10-01T07:51:55Z</time>
      </trkpt>
      <trkpt lat="44.40203" lon="4.19751">
        <ele>180</ele>
        <time>2021-10-01T07:52:26Z</time>
      </trkpt>
      <trkpt lat="44.40209" lon="4.19741">
        <ele>181</ele>
        <time>2021-10-01T07:52:38Z</time>
      </trkpt>
      <trkpt lat="44.40233" lon="4.19741">
        <ele>182</ele>
        <time>2021-10-01T07:53:10Z</time>
      </trkpt>
      <trkpt lat="44.40237" lon="4.19749">
        <ele>181</ele>
        <time>2021-10-01T07:53:19Z</time>
      </trkpt>
      <trkpt lat="44.40221" lon="4.19768">
        <ele>179</ele>
        <time>2021-10-01T07:53:47Z</time>
      </trkpt>
      <trkpt lat="44.40203" lon="4.19807">
        <ele>175</ele>
        <time>2021-10-01T07:54:32Z</time>
      </trkpt>
      <trkpt lat="44.40199" lon="4.19843">
        <ele>170</ele>
        <time>2021-10-01T07:55:06Z</time>
      </trkpt>
      <trkpt lat="44.40212" lon="4.19842">
        <ele>171</ele>
        <time>2021-10-01T07:55:24Z</time>
      </trkpt>
      <trkpt lat="44.40232" lon="4.19813">
        <ele>175</ele>
        <time>2021-10-01T07:56:02Z</time>
      </trkpt>
      <trkpt lat="44.40249" lon="4.19798">
        <ele>177</ele>
        <time>2021-10-01T07:56:29Z</time>
      </trkpt>
      <trkpt lat="44.40266" lon="4.19794">
        <ele>180</ele>
        <time>2021-10-01T07:56:52Z</time>
      </trkpt>
      <trkpt lat="44.40275" lon="4.19817">
        <ele>179</ele>
        <time>2021-10-01T07:57:17Z</time>
      </trkpt>
      <trkpt lat="44.40262" lon="4.19844">
        <ele>173</ele>
        <time>2021-10-01T07:57:48Z</time>
      </trkpt>
      <trkpt lat="44.40268" lon="4.19866">
        <ele>168</ele>
        <time>2021-10-01T07:58:11Z</time>
      </trkpt>
      <trkpt lat="44.40291" lon="4.19853">
        <ele>176</ele>
        <time>2021-10-01T07:58:44Z</time>
      </trkpt>
      <trkpt lat="44.40299" lon="4.19842">
        <ele>180</ele>
        <time>2021-10-01T07:58:59Z</time>
      </trkpt>
      <trkpt lat="44.40321" lon="4.19843">
        <ele>183</ele>
        <time>2021-10-01T07:59:28Z</time>
      </trkpt>
      <trkpt lat="44.40344" lon="4.19852">
        <ele>183</ele>
        <time>2021-10-01T08:00:00Z</time>
      </trkpt>
      <trkpt lat="44.4039" lon="4.19839">
        <ele>186</ele>
        <time>2021-10-01T08:01:02Z</time>
      </trkpt>
      <trkpt lat="44.40404" lon="4.19822">
        <ele>188</ele>
        <time>2021-10-01T08:01:27Z</time>
      </trkpt>
      <trkpt lat="44.40412" lon="4.19807">
        <ele>189</ele>
        <time>2021-10-01T08:01:45Z</time>
      </trkpt>
      <trkpt lat="44.40413" lon="4.19776">
        <ele>192</ele>
        <time>2021-10-01T08:02:15Z</time>
      </trkpt>
      <trkpt lat="44.40418" lon="4.19754">
        <ele>194</ele>
        <time>2021-10-01T08:02:37Z</time>
      </trkpt>
      <trkpt lat="44.40401" lon="4.19697">
        <ele>194</ele>
        <time>2021-10-01T08:03:36Z</time>
      </trkpt>
      <trkpt lat="44.40377" lon="4.19659">
        <ele>193</ele>
        <time>2021-10-01T08:04:24Z</time>
      </trkpt>
      <trkpt lat="44.40363" lon="4.19647">
        <ele>193</ele>
        <time>2021-10-01T08:04:46Z</time>
      </trkpt>
      <trkpt lat="44.4039" lon="4.19643">
        <ele>192</ele>
        <time>2021-10-01T08:05:22Z</time>
      </trkpt>
      <trkpt lat="44.4043" lon="4.19672">
        <ele>192</ele>
        <time>2021-10-01T08:06:22Z</time>
      </trkpt>
      <trkpt lat="44.40466" lon="4.19656">
        <ele>182</ele>
        <time>2021-10-01T08:07:13Z</time>
      </trkpt>
      <trkpt lat="44.40488" lon="4.19672">
        <ele>181</ele>
        <time>2021-10-01T08:07:46Z</time>
      </trkpt>
      <trkpt lat="44.40512" lon="4.19696">
        <ele>181</ele>
        <time>2021-10-01T08:08:25Z</time>
      </trkpt>
      <trkpt lat="44.40546" lon="4.19674">
        <ele>177</ele>
        <time>2021-10-01T08:09:15Z</time>
      </trkpt>
      <trkpt lat="44.40568" lon="4.19672">
        <ele>177</ele>
        <time>2021-10-01T08:09:44Z</time>
      </trkpt>
      <trkpt lat="44.40534" lon="4.19654">
        <ele>174</ele>
        <time>2021-10-01T08:10:33Z</time>
      </trkpt>
      <trkpt lat="44.40508" lon="4.1965">
        <ele>172</ele>
        <time>2021-10-01T08:11:08Z</time>
      </trkpt>
      <trkpt lat="44.40529" lon="4.19614">
        <ele>163</ele>
        <time>2021-10-01T08:11:52Z</time>
      </trkpt>
      <trkpt lat="44.40526" lon="4.19599">
        <ele>158</ele>
        <time>2021-10-01T08:12:07Z</time>
      </trkpt>
      <trkpt lat="44.40557" lon="4.1956">
        <ele>156</ele>
        <time>2021-10-01T08:13:03Z</time>
      </trkpt>
      <trkpt lat="44.4059" lon="4.19484">
        <ele>145</ele>
        <time>2021-10-01T08:14:27Z</time>
      </trkpt>
      <trkpt lat="44.40578" lon="4.19349">
        <ele>129</ele>
        <time>2021-10-01T08:16:37Z</time>
      </trkpt>
      <trkpt lat="44.40562" lon="4.19257">
        <ele>138</ele>
        <time>2021-10-01T08:18:07Z</time>
      </trkpt>
      <trkpt lat="44.40561" lon="4.19164">
        <ele>137</ele>
        <time>2021-10-01T08:19:36Z</time>
      </trkpt>
      <trkpt lat="44.4057" lon="4.19084">
        <ele>135</ele>
        <time>2021-10-01T08:20:53Z</time>
      </trkpt>
      <trkpt lat="44.4065" lon="4.18956">
        <ele>139</ele>
        <time>2021-10-01T08:23:35Z</time>
      </trkpt>
      <trkpt lat="44.40655" lon="4.18901">
        <ele>140</ele>
        <time>2021-10-01T08:24:28Z</time>
      </trkpt>
      <trkpt lat="44.40667" lon="4.18881">
        <ele>141</ele>
        <time>2021-10-01T08:24:53Z</time>
      </trkpt>
      <trkpt lat="44.40673" lon="4.18785">
        <ele>138</ele>
        <time>2021-10-01T08:26:25Z</time>
      </trkpt>
      <trkpt lat="44.407" lon="4.18739">
        <ele>142</ele>
        <time>2021-10-01T08:27:22Z</time>
      </trkpt>
      <trkpt lat="44.40712" lon="4.18741">
        <ele>146</ele>
        <time>2021-10-01T08:27:38Z</time>
      </trkpt>
      <trkpt lat="44.40759" lon="4.18677">
        <ele>146</ele>
        <time>2021-10-01T08:29:05Z</time>
      </trkpt>
      <trkpt lat="44.40827" lon="4.18641">
        <ele>162</ele>
        <time>2021-10-01T08:30:42Z</time>
      </trkpt>
      <trkpt lat="44.40852" lon="4.1854">
        <ele>146</ele>
        <time>2021-10-01T08:32:24Z</time>
      </trkpt>
      <trkpt lat="44.40882" lon="4.18536">
        <ele>156</ele>
        <time>2021-10-01T08:33:05Z</time>
      </trkpt>
      <trkpt lat="44.4093" lon="4.18521">
        <ele>169</ele>
        <time>2021-10-01T08:34:10Z</time>
      </trkpt>
      <trkpt lat="44.40924" lon="4.18492">
        <ele>163</ele>
        <time>2021-10-01T08:34:39Z</time>
      </trkpt>
      <trkpt lat="44.4091" lon="4.18478">
        <ele>157</ele>
        <time>2021-10-01T08:35:02Z</time>
      </trkpt>
      <trkpt lat="44.40906" lon="4.18446">
        <ele>156</ele>
        <time>2021-10-01T08:35:33Z</time>
      </trkpt>
      <trkpt lat="44.40967" lon="4.18319">
        <ele>171</ele>
        <time>2021-10-01T08:37:59Z</time>
      </trkpt>
      <trkpt lat="44.41011" lon="4.1827">
        <ele>186</ele>
        <time>2021-10-01T08:39:14Z</time>
      </trkpt>
      <trkpt lat="44.41016" lon="4.18244">
        <ele>184</ele>
        <time>2021-10-01T08:39:39Z</time>
      </trkpt>
      <trkpt lat="44.41029" lon="4.18187">
        <ele>178</ele>
        <time>2021-10-01T08:40:36Z</time>
      </trkpt>
      <trkpt lat="44.41071" lon="4.18107">
        <ele>196</ele>
        <time>2021-10-01T08:42:11Z</time>
      </trkpt>
      <trkpt lat="44.41054" lon="4.18052">
        <ele>183</ele>
        <time>2021-10-01T08:43:08Z</time>
      </trkpt>
      <trkpt lat="44.41069" lon="4.18013">
        <ele>192</ele>
        <time>2021-10-01T08:43:50Z</time>
      </trkpt>
      <trkpt lat="44.41048" lon="4.17899">
        <ele>176</ele>
        <time>2021-10-01T08:45:43Z</time>
      </trkpt>
      <trkpt lat="44.41044" lon="4.17791">
        <ele>155</ele>
        <time>2021-10-01T08:47:26Z</time>
      </trkpt>
      <trkpt lat="44.41057" lon="4.17776">
        <ele>152</ele>
        <time>2021-10-01T08:47:48Z</time>
      </trkpt>
      <trkpt lat="44.41085" lon="4.17787">
        <ele>159</ele>
        <time>2021-10-01T08:48:27Z</time>
      </trkpt>
      <trkpt lat="44.41103" lon="4.178">
        <ele>159</ele>
        <time>2021-10-01T08:48:54Z</time>
      </trkpt>
      <trkpt lat="44.41096" lon="4.17779">
        <ele>154</ele>
        <time>2021-10-01T08:49:16Z</time>
      </trkpt>
      <trkpt lat="44.41115" lon="4.17791">
        <ele>153</ele>
        <time>2021-10-01T08:49:44Z</time>
      </trkpt>
      <trkpt lat="44.41109" lon="4.17768">
        <ele>147</ele>
        <time>2021-10-01T08:50:07Z</time>
      </trkpt>
      <trkpt lat="44.41128" lon="4.17773">
        <ele>145</ele>
        <time>2021-10-01T08:50:33Z</time>
      </trkpt>
      <trkpt lat="44.41129" lon="4.17758">
        <ele>141</ele>
        <time>2021-10-01T08:50:48Z</time>
      </trkpt>
      <trkpt lat="44.41152" lon="4.17747">
        <ele>135</ele>
        <time>2021-10-01T08:51:20Z</time>
      </trkpt>
      <trkpt lat="44.41181" lon="4.178">
        <ele>139</ele>
        <time>2021-10-01T08:52:24Z</time>
      </trkpt>
      <trkpt lat="44.41189" lon="4.17848">
        <ele>145</ele>
        <time>2021-10-01T08:53:11Z</time>
      </trkpt>
      <trkpt lat="44.41211" lon="4.17866">
        <ele>144</ele>
        <time>2021-10-01T08:53:45Z</time>
      </trkpt>
      <trkpt lat="44.41235" lon="4.17873">
        <ele>140</ele>
        <time>2021-10-01T08:54:17Z</time>
      </trkpt>
      <trkpt lat="44.41313" lon="4.1782">
        <ele>138</ele>
        <time>2021-10-01T08:56:13Z</time>
      </trkpt>
      <trkpt lat="44.41336" lon="4.17816">
        <ele>138</ele>
        <time>2021-10-01T08:56:44Z</time>
      </trkpt>
      <trkpt lat="44.41371" lon="4.17786">
        <ele>140</ele>
        <time>2021-10-01T08:57:39Z</time>
      </trkpt>
      <trkpt lat="44.41407" lon="4.17771">
        <ele>138</ele>
        <time>2021-10-01T08:58:29Z</time>
      </trkpt>
      <trkpt lat="44.41457" lon="4.17784">
        <ele>138</ele>
        <time>2021-10-01T08:59:37Z</time>
      </trkpt>
      <trkpt lat="44.41464" lon="4.17816">
        <ele>138</ele>
        <time>2021-10-01T09:00:09Z</time>
      </trkpt>
      <trkpt lat="44.41497" lon="4.17839">
        <ele>137</ele>
        <time>2021-10-01T09:00:58Z</time>
      </trkpt>
      <trkpt lat="44.41469" lon="4.17919">
        <ele>143</ele>
        <time>2021-10-01T09:02:23Z</time>
      </trkpt>
      <trkpt lat="44.41478" lon="4.17982">
        <ele>159</ele>
        <time>2021-10-01T09:03:24Z</time>
      </trkpt>
      <trkpt lat="44.41432" lon="4.18017">
        <ele>171</ele>
        <time>2021-10-01T09:04:34Z</time>
      </trkpt>
      <trkpt lat="44.41407" lon="4.18056">
        <ele>190</ele>
        <time>2021-10-01T09:05:24Z</time>
      </trkpt>
      <trkpt lat="44.41385" lon="4.18058">
        <ele>189</ele>
        <time>2021-10-01T09:05:53Z</time>
      </trkpt>
      <trkpt lat="44.41355" lon="4.18091">
        <ele>203</ele>
        <time>2021-10-01T09:06:44Z</time>
      </trkpt>
      <trkpt lat="44.41342" lon="4.18122">
        <ele>213</ele>
        <time>2021-10-01T09:07:18Z</time>
      </trkpt>
      <trkpt lat="44.41346" lon="4.18155">
        <ele>225</ele>
        <time>2021-10-01T09:07:50Z</time>
      </trkpt>
      <trkpt lat="44.41339" lon="4.18265">
        <ele>237</ele>
        <time>2021-10-01T09:09:36Z</time>
      </trkpt>
      <trkpt lat="44.41331" lon="4.183">
        <ele>239</ele>
        <time>2021-10-01T09:10:11Z</time>
      </trkpt>
      <trkpt lat="44.41315" lon="4.18345">
        <ele>241</ele>
        <time>2021-10-01T09:10:58Z</time>
      </trkpt>
      <trkpt lat="44.41313" lon="4.18408">
        <ele>241</ele>
        <time>2021-10-01T09:11:59Z</time>
      </trkpt>
      <trkpt lat="44.41284" lon="4.18446">
        <ele>238</ele>
        <time>2021-10-01T09:12:52Z</time>
      </trkpt>
      <trkpt lat="44.41272" lon="4.18514">
        <ele>232</ele>
        <time>2021-10-01T09:13:58Z</time>
      </trkpt>
      <trkpt lat="44.41273" lon="4.18551">
        <ele>230</ele>
        <time>2021-10-01T09:14:34Z</time>
      </trkpt>
      <trkpt lat="44.41257" lon="4.1858">
        <ele>227</ele>
        <time>2021-10-01T09:15:09Z</time>
      </trkpt>
      <trkpt lat="44.41256" lon="4.18652">
        <ele>226</ele>
        <time>2021-10-01T09:16:17Z</time>
      </trkpt>
      <trkpt lat="44.41238" lon="4.18748">
        <ele>234</ele>
        <time>2021-10-01T09:17:52Z</time>
      </trkpt>
      <trkpt lat="44.41198" lon="4.18763">
        <ele>235</ele>
        <time>2021-10-01T09:18:47Z</time>
      </trkpt>
      <trkpt lat="44.41166" lon="4.18845">
        <ele>236</ele>
        <time>2021-10-01T09:20:16Z</time>
      </trkpt>
      <trkpt lat="44.41126" lon="4.18837">
        <ele>235</ele>
        <time>2021-10-01T09:21:10Z</time>
      </trkpt>
      <trkpt lat="44.41075" lon="4.18842">
        <ele>235</ele>
        <time>2021-10-01T09:22:18Z</time>
      </trkpt>
      <trkpt lat="44.41056" lon="4.18894">
        <ele>234</ele>
        <time>2021-10-01T09:23:14Z</time>
      </trkpt>
      <trkpt lat="44.4105" lon="4.18953">
        <ele>233</ele>
        <time>2021-10-01T09:24:11Z</time>
      </trkpt>
      <trkpt lat="44.41096" lon="4.18996">
        <ele>235</ele>
        <time>2021-10-01T09:25:25Z</time>
      </trkpt>
      <trkpt lat="44.41122" lon="4.19072">
        <ele>233</ele>
        <time>2021-10-01T09:26:45Z</time>
      </trkpt>
      <trkpt lat="44.41122" lon="4.19072">
        <ele>233</ele>
        <time>2021-10-01T09:26:45Z</time>
      </trkpt>
      <trkpt lat="44.41161" lon="4.19081">
        <ele>234</ele>
        <time>2021-10-01T09:27:38Z</time>
      </trkpt>
      <trkpt lat="44.41212" lon="4.19138">
        <ele>236</ele>
        <time>2021-10-01T09:29:05Z</time>
      </trkpt>
      <trkpt lat="44.41225" lon="4.19158">
        <ele>237</ele>
        <time>2021-10-01T09:29:31Z</time>
      </trkpt>
      <trkpt lat="44.41289" lon="4.19202">
        <ele>238</ele>
        <time>2021-10-01T09:31:06Z</time>
      </trkpt>
      <trkpt lat="44.41281" lon="4.19229">
        <ele>238</ele>
        <time>2021-10-01T09:31:34Z</time>
      </trkpt>
      <trkpt lat="44.41263" lon="4.19243">
        <ele>239</ele>
        <time>2021-10-01T09:32:01Z</time>
      </trkpt>
      <trkpt lat="44.41251" lon="4.19231">
        <ele>239</ele>
        <time>2021-10-01T09:32:21Z</time>
      </trkpt>
      <trkpt lat="44.41224" lon="4.19227">
        <ele>239</ele>
        <time>2021-10-01T09:32:57Z</time>
      </trkpt>
      <trkpt lat="44.41214" lon="4.19231">
        <ele>240</ele>
        <time>2021-10-01T09:33:11Z</time>
      </trkpt>
      <trkpt lat="44.4121" lon="4.19248">
        <ele>241</ele>
        <time>2021-10-01T09:33:28Z</time>
      </trkpt>
      <trkpt lat="44.41215" lon="4.19262">
        <ele>241</ele>
        <time>2021-10-01T09:33:43Z</time>
      </trkpt>
      <trkpt lat="44.41232" lon="4.19273">
        <ele>241</ele>
        <time>2021-10-01T09:34:08Z</time>
      </trkpt>
      <trkpt lat="44.41235" lon="4.19283">
        <ele>242</ele>
        <time>2021-10-01T09:34:18Z</time>
      </trkpt>
      <trkpt lat="44.41223" lon="4.19323">
        <ele>245</ele>
        <time>2021-10-01T09:34:59Z</time>
      </trkpt>
      <trkpt lat="44.41214" lon="4.19343">
        <ele>247</ele>
        <time>2021-10-01T09:35:22Z</time>
      </trkpt>
      <trkpt lat="44.41194" lon="4.19359">
        <ele>248</ele>
        <time>2021-10-01T09:35:53Z</time>
      </trkpt>
      <trkpt lat="44.41175" lon="4.19367">
        <ele>250</ele>
        <time>2021-10-01T09:36:19Z</time>
      </trkpt>
      <trkpt lat="44.41138" lon="4.19368">
        <ele>250</ele>
        <time>2021-10-01T09:37:09Z</time>
      </trkpt>
      <trkpt lat="44.41132" lon="4.19384">
        <ele>251</ele>
        <time>2021-10-01T09:37:26Z</time>
      </trkpt>
      <trkpt lat="44.41135" lon="4.19391">
        <ele>251</ele>
        <time>2021-10-01T09:37:34Z</time>
      </trkpt>
      <trkpt lat="44.41144" lon="4.19397">
        <ele>251</ele>
        <time>2021-10-01T09:37:47Z</time>
      </trkpt>
      <trkpt lat="44.41151" lon="4.19417">
        <ele>252</ele>
        <time>2021-10-01T09:38:08Z</time>
      </trkpt>
      <trkpt lat="44.41161" lon="4.19419">
        <ele>252</ele>
        <time>2021-10-01T09:38:22Z</time>
      </trkpt>
      <trkpt lat="44.4118" lon="4.19419">
        <ele>251</ele>
        <time>2021-10-01T09:38:47Z</time>
      </trkpt>
      <trkpt lat="44.41191" lon="4.19423">
        <ele>250</ele>
        <time>2021-10-01T09:39:02Z</time>
      </trkpt>
      <trkpt lat="44.41194" lon="4.19435">
        <ele>250</ele>
        <time>2021-10-01T09:39:14Z</time>
      </trkpt>
      <trkpt lat="44.41243" lon="4.19473">
        <ele>247</ele>
        <time>2021-10-01T09:40:29Z</time>
      </trkpt>
      <trkpt lat="44.41247" lon="4.1948">
        <ele>247</ele>
        <time>2021-10-01T09:40:38Z</time>
      </trkpt>
      <trkpt lat="44.41246" lon="4.19491">
        <ele>247</ele>
        <time>2021-10-01T09:40:48Z</time>
      </trkpt>
      <trkpt lat="44.41241" lon="4.19498">
        <ele>247</ele>
        <time>2021-10-01T09:40:58Z</time>
      </trkpt>
      <trkpt lat="44.4123" lon="4.19501">
        <ele>246</ele>
        <time>2021-10-01T09:41:13Z</time>
      </trkpt>
      <trkpt lat="44.41214" lon="4.1952">
        <ele>245</ele>
        <time>2021-10-01T09:41:41Z</time>
      </trkpt>
      <trkpt lat="44.41212" lon="4.19534">
        <ele>245</ele>
        <time>2021-10-01T09:41:54Z</time>
      </trkpt>
      <trkpt lat="44.41229" lon="4.19569">
        <ele>244</ele>
        <time>2021-10-01T09:42:34Z</time>
      </trkpt>
      <trkpt lat="44.41231" lon="4.19617">
        <ele>244</ele>
        <time>2021-10-01T09:43:20Z</time>
      </trkpt>
      <trkpt lat="44.41251" lon="4.1967">
        <ele>245</ele>
        <time>2021-10-01T09:44:17Z</time>
      </trkpt>
      <trkpt lat="44.41259" lon="4.19677">
        <ele>243</ele>
        <time>2021-10-01T09:44:30Z</time>
      </trkpt>
      <trkpt lat="44.41267" lon="4.19675">
        <ele>242</ele>
        <time>2021-10-01T09:44:41Z</time>
      </trkpt>
      <trkpt lat="44.41272" lon="4.1968">
        <ele>241</ele>
        <time>2021-10-01T09:44:49Z</time>
      </trkpt>
      <trkpt lat="44.41262" lon="4.19701">
        <ele>240</ele>
        <time>2021-10-01T09:45:13Z</time>
      </trkpt>
      <trkpt lat="44.41239" lon="4.19708">
        <ele>240</ele>
        <time>2021-10-01T09:45:45Z</time>
      </trkpt>
      <trkpt lat="44.41201" lon="4.19708">
        <ele>240</ele>
        <time>2021-10-01T09:46:35Z</time>
      </trkpt>
      <trkpt lat="44.41163" lon="4.19702">
        <ele>239</ele>
        <time>2021-10-01T09:47:26Z</time>
      </trkpt>
      <trkpt lat="44.4115" lon="4.19705">
        <ele>237</ele>
        <time>2021-10-01T09:47:44Z</time>
      </trkpt>
      <trkpt lat="44.41128" lon="4.19715">
        <ele>234</ele>
        <time>2021-10-01T09:48:15Z</time>
      </trkpt>
      <trkpt lat="44.41111" lon="4.19717">
        <ele>232</ele>
        <time>2021-10-01T09:48:38Z</time>
      </trkpt>
      <trkpt lat="44.41079" lon="4.19713">
        <ele>228</ele>
        <time>2021-10-01T09:49:20Z</time>
      </trkpt>
      <trkpt lat="44.41069" lon="4.19716">
        <ele>227</ele>
        <time>2021-10-01T09:49:34Z</time>
      </trkpt>
      <trkpt lat="44.41057" lon="4.19737">
        <ele>224</ele>
        <time>2021-10-01T09:50:00Z</time>
      </trkpt>
      <trkpt lat="44.41044" lon="4.19769">
        <ele>220</ele>
        <time>2021-10-01T09:50:35Z</time>
      </trkpt>
      <trkpt lat="44.41042" lon="4.19803">
        <ele>218</ele>
        <time>2021-10-01T09:51:07Z</time>
      </trkpt>
      <trkpt lat="44.41038" lon="4.19815">
        <ele>218</ele>
        <time>2021-10-01T09:51:20Z</time>
      </trkpt>
      <trkpt lat="44.41045" lon="4.19831">
        <ele>217</ele>
        <time>2021-10-01T09:51:38Z</time>
      </trkpt>
      <trkpt lat="44.41018" lon="4.19873">
        <ele>213</ele>
        <time>2021-10-01T09:52:32Z</time>
      </trkpt>
      <trkpt lat="44.41001" lon="4.19948">
        <ele>206</ele>
        <time>2021-10-01T09:53:47Z</time>
      </trkpt>
      <trkpt lat="44.40964" lon="4.20012">
        <ele>202</ele>
        <time>2021-10-01T09:55:05Z</time>
      </trkpt>
      <trkpt lat="44.40955" lon="4.20066">
        <ele>196</ele>
        <time>2021-10-01T09:55:58Z</time>
      </trkpt>
      <trkpt lat="44.40905" lon="4.20121">
        <ele>190</ele>
        <time>2021-10-01T09:57:23Z</time>
      </trkpt>
      <trkpt lat="44.40867" lon="4.20138">
        <ele>187</ele>
        <time>2021-10-01T09:58:16Z</time>
      </trkpt>
      <trkpt lat="44.40819" lon="4.20119">
        <ele>189</ele>
        <time>2021-10-01T09:59:23Z</time>
      </trkpt>
      <trkpt lat="44.40806" lon="4.20076">
        <ele>202</ele>
        <time>2021-10-01T10:00:07Z</time>
      </trkpt>
      <trkpt lat="44.40787" lon="4.20063">
        <ele>201</ele>
        <time>2021-10-01T10:00:35Z</time>
      </trkpt>
      <trkpt lat="44.40788" lon="4.20039">
        <ele>207</ele>
        <time>2021-10-01T10:00:58Z</time>
      </trkpt>
      <trkpt lat="44.40774" lon="4.20016">
        <ele>211</ele>
        <time>2021-10-01T10:01:27Z</time>
      </trkpt>
      <trkpt lat="44.40767" lon="4.19978">
        <ele>215</ele>
        <time>2021-10-01T10:02:05Z</time>
      </trkpt>
      <trkpt lat="44.40749" lon="4.19932">
        <ele>215</ele>
        <time>2021-10-01T10:02:55Z</time>
      </trkpt>
      <trkpt lat="44.40725" lon="4.19917">
        <ele>214</ele>
        <time>2021-10-01T10:03:30Z</time>
      </trkpt>
      <trkpt lat="44.40704" lon="4.19911">
        <ele>212</ele>
        <time>2021-10-01T10:03:58Z</time>
      </trkpt>
      <trkpt lat="44.40683" lon="4.19892">
        <ele>208</ele>
        <time>2021-10-01T10:04:32Z</time>
      </trkpt>
      <trkpt lat="44.40682" lon="4.19876">
        <ele>206</ele>
        <time>2021-10-01T10:04:47Z</time>
      </trkpt>
      <trkpt lat="44.40675" lon="4.19856">
        <ele>203</ele>
        <time>2021-10-01T10:05:08Z</time>
      </trkpt>
      <trkpt lat="44.40652" lon="4.19848">
        <ele>200</ele>
        <time>2021-10-01T10:05:40Z</time>
      </trkpt>
      <trkpt lat="44.40626" lon="4.19846">
        <ele>198</ele>
        <time>2021-10-01T10:06:15Z</time>
      </trkpt>
      <trkpt lat="44.40578" lon="4.19831">
        <ele>193</ele>
        <time>2021-10-01T10:07:20Z</time>
      </trkpt>
      <trkpt lat="44.40539" lon="4.19825">
        <ele>191</ele>
        <time>2021-10-01T10:08:12Z</time>
      </trkpt>
      <trkpt lat="44.40539" lon="4.19824">
        <ele>191</ele>
        <time>2021-10-01T10:08:13Z</time>
      </trkpt>
      <trkpt lat="44.40533" lon="4.19857">
        <ele>189</ele>
        <time>2021-10-01T10:08:46Z</time>
      </trkpt>
      <trkpt lat="44.40521" lon="4.19874">
        <ele>185</ele>
        <time>2021-10-01T10:09:09Z</time>
      </trkpt>
      <trkpt lat="44.40501" lon="4.19895">
        <ele>177</ele>
        <time>2021-10-01T10:09:42Z</time>
      </trkpt>
      <trkpt lat="44.40505" lon="4.19907">
        <ele>175</ele>
        <time>2021-10-01T10:09:55Z</time>
      </trkpt>
      <trkpt lat="44.40501" lon="4.19927">
        <ele>167</ele>
        <time>2021-10-01T10:10:14Z</time>
      </trkpt>
      <trkpt lat="44.40438" lon="4.19925">
        <ele>162</ele>
        <time>2021-10-01T10:11:39Z</time>
      </trkpt>
      <trkpt lat="44.4039" lon="4.1993">
        <ele>160</ele>
        <time>2021-10-01T10:12:43Z</time>
      </trkpt>
      <trkpt lat="44.40285" lon="4.19913">
        <ele>160</ele>
        <time>2021-10-01T10:15:04Z</time>
      </trkpt>
      <trkpt lat="44.40222" lon="4.1991">
        <ele>151</ele>
        <time>2021-10-01T10:16:28Z</time>
      </trkpt>
      <trkpt lat="44.40192" lon="4.19924">
        <ele>144</ele>
        <time>2021-10-01T10:17:10Z</time>
      </trkpt>
      <trkpt lat="44.40151" lon="4.19955">
        <ele>136</ele>
        <time>2021-10-01T10:18:12Z</time>
      </trkpt>
      <trkpt lat="44.40124" lon="4.19951">
        <ele>143</ele>
        <time>2021-10-01T10:18:49Z</time>
      </trkpt>
      <trkpt lat="44.40094" lon="4.19966">
        <ele>144</ele>
        <time>2021-10-01T10:19:31Z</time>
      </trkpt>
      <trkpt lat="44.40094" lon="4.19995">
        <ele>133</ele>
        <time>2021-10-01T10:19:59Z</time>
      </trkpt>
      <trkpt lat="44.40048" lon="4.20044">
        <ele>128</ele>
        <time>2021-10-01T10:21:16Z</time>
      </trkpt>
      <trkpt lat="44.40051" lon="4.20055">
        <ele>126</ele>
        <time>2021-10-01T10:21:27Z</time>
      </trkpt>
      <trkpt lat="44.40002" lon="4.20108">
        <ele>124</ele>
        <time>2021-10-01T10:22:50Z</time>
      </trkpt>
      <trkpt lat="44.39923" lon="4.20142">
        <ele>124</ele>
        <time>2021-10-01T10:24:40Z</time>
      </trkpt>
      <trkpt lat="44.39907" lon="4.20132">
        <ele>124</ele>
        <time>2021-10-01T10:25:03Z</time>
      </trkpt>
      <trkpt lat="44.3991" lon="4.20101">
        <ele>126</ele>
        <time>2021-10-01T10:25:33Z</time>
      </trkpt>
      <trkpt lat="44.39917" lon="4.20076">
        <ele>128</ele>
        <time>2021-10-01T10:25:59Z</time>
      </trkpt>
      <trkpt lat="44.39915" lon="4.20016">
        <ele>137</ele>
        <time>2021-10-01T10:26:56Z</time>
      </trkpt>
      <trkpt lat="44.39902" lon="4.19998">
        <ele>139</ele>
        <time>2021-10-01T10:27:21Z</time>
      </trkpt>
      <trkpt lat="44.3983" lon="4.19957">
        <ele>142</ele>
        <time>2021-10-01T10:29:04Z</time>
      </trkpt>
      <trkpt lat="44.39817" lon="4.19936">
        <ele>143</ele>
        <time>2021-10-01T10:29:31Z</time>
      </trkpt>
      <trkpt lat="44.39798" lon="4.19935">
        <ele>142</ele>
        <time>2021-10-01T10:29:56Z</time>
      </trkpt>
      <trkpt lat="44.39746" lon="4.19926">
        <ele>137</ele>
        <time>2021-10-01T10:31:06Z</time>
      </trkpt>
      <trkpt lat="44.39737" lon="4.19922">
        <ele>136</ele>
        <time>2021-10-01T10:31:19Z</time>
      </trkpt>
      <trkpt lat="44.39728" lon="4.19907">
        <ele>136</ele>
        <time>2021-10-01T10:31:37Z</time>
      </trkpt>
      <trkpt lat="44.39728" lon="4.19867">
        <ele>141</ele>
        <time>2021-10-01T10:32:15Z</time>
      </trkpt>
      <trkpt lat="44.39725" lon="4.19801">
        <ele>148</ele>
        <time>2021-10-01T10:33:19Z</time>
      </trkpt>
      <trkpt lat="44.39724" lon="4.19763">
        <ele>153</ele>
        <time>2021-10-01T10:33:55Z</time>
      </trkpt>
      <trkpt lat="44.39709" lon="4.19738">
        <ele>151</ele>
        <time>2021-10-01T10:34:26Z</time>
      </trkpt>
      <trkpt lat="44.39707" lon="4.19697">
        <ele>155</ele>
        <time>2021-10-01T10:35:05Z</time>
      </trkpt>
      <trkpt lat="44.39692" lon="4.19673">
        <ele>153</ele>
        <time>2021-10-01T10:35:35Z</time>
      </trkpt>
      <trkpt lat="44.39672" lon="4.1963">
        <ele>150</ele>
        <time>2021-10-01T10:36:24Z</time>
      </trkpt>
      <trkpt lat="44.39655" lon="4.19626">
        <ele>146</ele>
        <time>2021-10-01T10:36:47Z</time>
      </trkpt>
      <trkpt lat="44.39617" lon="4.19596">
        <ele>137</ele>
        <time>2021-10-01T10:37:46Z</time>
      </trkpt>
    </trkseg>
  </trk>
</gpx>